Terminal Aerodrome Forecast
Issued by NWS

Home | Current Version | Previous Version | Text Only | Print | Product List | Glossary On
Versions: 1 2 3 4 5 6 7 8 9 10 11 12
000
FTUS41 KLWX 012300
TAFMTN
TAF
KMTN 012340Z 0200/0224 11010KT P6SM BKN030 BKN040 OVC060
     FM020400 10004KT P6SM SCT010 OVC030
     FM020900 06006KT P6SM -SHRA SCT008 OVC010
     FM021400 05008KT P6SM -SHRA SCT010 OVC025
     FM021800 06007KT P6SM SCT020 BKN035
      AMD NOT SKED 0202/0212=

USA.gov is the U.S. government's official web portal to all federal, state and local government web resources and services.